sensor_id;sensor_type;location;lat;lon;timestamp;P1;durP1;ratioP1;P2;durP2;ratioP2
20861;SDS011;10591;52.532;13.348;2023-09-30T00:00:37;7.37;;;3.05;;
20861;SDS011;10591;52.532;13.348;2023-09-30T00:03:08;5.10;;;3.27;;
20861;SDS011;10591;52.532;13.348;2023-09-30T00:05:40;5.87;;;2.92;;
20861;SDS011;10591;52.532;13.348;2023-09-30T00:08:11;10.18;;;3.62;;
20861;SDS011;10591;52.532;13.348;2023-09-30T00:10:41;6.97;;;3.08;;
20861;SDS011;10591;52.532;13.348;2023-09-30T00:13:12;8.73;;;3.33;;
20861;SDS011;10591;52.532;13.348;2023-09-30T00:15:43;7.25;;;2.67;;
20861;SDS011;10591;52.532;13.348;2023-09-30T00:18:14;7.17;;;3.15;;
20861;SDS011;10591;52.532;13.348;2023-09-30T00:20:45;8.00;;;3.42;;
20861;SDS011;10591;52.532;13.348;2023-09-30T00:23:16;7.37;;;3.87;;
20861;SDS011;10591;52.532;13.348;2023-09-30T00:25:48;7.12;;;2.83;;
20861;SDS011;10591;52.532;13.348;2023-09-30T00:28:19;7.80;;;3.27;;
20861;SDS011;10591;52.532;13.348;2023-09-30T00:30:50;8.03;;;3.90;;
20861;SDS011;10591;52.532;13.348;2023-09-30T00:33:22;7.80;;;3.42;;
20861;SDS011;10591;52.532;13.348;2023-09-30T00:35:54;4.47;;;3.15;;
20861;SDS011;10591;52.532;13.348;2023-09-30T00:38:25;6.37;;;3.67;;
20861;SDS011;10591;52.532;13.348;2023-09-30T00:40:55;5.20;;;3.30;;
20861;SDS011;10591;52.532;13.348;2023-09-30T00:43:27;8.48;;;2.85;;
20861;SDS011;10591;52.532;13.348;2023-09-30T00:49:05;7.28;;;3.55;;
20861;SDS011;10591;52.532;13.348;2023-09-30T00:51:36;7.72;;;3.60;;
20861;SDS011;10591;52.532;13.348;2023-09-30T00:54:08;8.28;;;3.67;;
20861;SDS011;10591;52.532;13.348;2023-09-30T00:56:47;4.75;;;3.22;;
20861;SDS011;10591;52.532;13.348;2023-09-30T00:59:13;4.60;;;3.08;;
20861;SDS011;10591;52.532;13.348;2023-09-30T01:01:45;10.03;;;4.53;;
20861;SDS011;10591;52.532;13.348;2023-09-30T01:04:16;4.55;;;2.50;;
20861;SDS011;10591;52.532;13.348;2023-09-30T01:06:47;7.72;;;2.92;;
20861;SDS011;10591;52.532;13.348;2023-09-30T01:09:19;5.72;;;2.70;;
20861;SDS011;10591;52.532;13.348;2023-09-30T01:11:50;9.55;;;3.12;;
20861;SDS011;10591;52.532;13.348;2023-09-30T01:14:25;7.83;;;2.85;;
20861;SDS011;10591;52.532;13.348;2023-09-30T01:17:00;9.05;;;3.20;;
20861;SDS011;10591;52.532;13.348;2023-09-30T01:19:35;9.03;;;2.90;;
20861;SDS011;10591;52.532;13.348;2023-09-30T01:22:06;7.35;;;3.20;;
20861;SDS011;10591;52.532;13.348;2023-09-30T01:24:39;6.20;;;2.87;;
20861;SDS011;10591;52.532;13.348;2023-09-30T01:27:11;7.83;;;2.77;;
20861;SDS011;10591;52.532;13.348;2023-09-30T01:29:42;7.67;;;2.80;;
20861;SDS011;10591;52.532;13.348;2023-09-30T01:32:12;6.60;;;3.22;;
20861;SDS011;10591;52.532;13.348;2023-09-30T01:34:45;8.43;;;3.02;;
20861;SDS011;10591;52.532;13.348;2023-09-30T01:37:15;7.30;;;3.10;;
20861;SDS011;10591;52.532;13.348;2023-09-30T01:39:46;8.00;;;3.08;;
20861;SDS011;10591;52.532;13.348;2023-09-30T01:42:18;10.30;;;3.10;;
20861;SDS011;10591;52.532;13.348;2023-09-30T01:44:50;9.85;;;3.47;;
20861;SDS011;10591;52.532;13.348;2023-09-30T01:47:24;8.90;;;3.10;;
20861;SDS011;10591;52.532;13.348;2023-09-30T01:49:57;7.28;;;3.08;;
20861;SDS011;10591;52.532;13.348;2023-09-30T01:52:28;8.30;;;3.10;;
20861;SDS011;10591;52.532;13.348;2023-09-30T01:54:59;7.37;;;3.33;;
20861;SDS011;10591;52.532;13.348;2023-09-30T01:57:31;11.73;;;3.42;;
20861;SDS011;10591;52.532;13.348;2023-09-30T02:00:01;9.58;;;4.22;;
20861;SDS011;10591;52.532;13.348;2023-09-30T02:02:34;8.30;;;3.22;;
20861;SDS011;10591;52.532;13.348;2023-09-30T02:05:07;7.20;;;2.58;;
20861;SDS011;10591;52.532;13.348;2023-09-30T02:07:38;8.55;;;3.45;;
20861;SDS011;10591;52.532;13.348;2023-09-30T02:10:11;11.97;;;3.37;;
20861;SDS011;10591;52.532;13.348;2023-09-30T02:12:42;7.87;;;2.95;;
20861;SDS011;10591;52.532;13.348;2023-09-30T02:15:15;6.75;;;2.85;;
20861;SDS011;10591;52.532;13.348;2023-09-30T02:17:47;12.85;;;3.17;;
20861;SDS011;10591;52.532;13.348;2023-09-30T02:20:18;11.95;;;3.45;;
20861;SDS011;10591;52.532;13.348;2023-09-30T02:22:51;12.05;;;3.72;;
20861;SDS011;10591;52.532;13.348;2023-09-30T02:25:23;7.72;;;3.37;;
20861;SDS011;10591;52.532;13.348;2023-09-30T02:27:55;9.85;;;3.60;;
20861;SDS011;10591;52.532;13.348;2023-09-30T02:30:26;11.83;;;3.08;;
20861;SDS011;10591;52.532;13.348;2023-09-30T02:32:56;11.03;;;3.72;;
20861;SDS011;10591;52.532;13.348;2023-09-30T02:35:28;9.60;;;3.47;;
20861;SDS011;10591;52.532;13.348;2023-09-30T02:37:58;10.03;;;3.70;;
20861;SDS011;10591;52.532;13.348;2023-09-30T02:40:29;10.20;;;3.50;;
20861;SDS011;10591;52.532;13.348;2023-09-30T02:43:00;8.05;;;3.35;;
20861;SDS011;10591;52.532;13.348;2023-09-30T02:45:31;9.03;;;3.95;;
20861;SDS011;10591;52.532;13.348;2023-09-30T02:48:01;8.33;;;3.62;;
20861;SDS011;10591;52.532;13.348;2023-09-30T02:50:32;11.70;;;3.90;;
20861;SDS011;10591;52.532;13.348;2023-09-30T02:53:03;7.28;;;3.72;;
20861;SDS011;10591;52.532;13.348;2023-09-30T02:55:34;7.50;;;3.75;;
20861;SDS011;10591;52.532;13.348;2023-09-30T02:58:07;7.28;;;3.77;;
20861;SDS011;10591;52.532;13.348;2023-09-30T03:00:38;12.43;;;3.52;;
20861;SDS011;10591;52.532;13.348;2023-09-30T03:03:09;12.00;;;4.08;;
20861;SDS011;10591;52.532;13.348;2023-09-30T03:05:42;13.62;;;4.30;;
20861;SDS011;10591;52.532;13.348;2023-09-30T03:08:14;8.60;;;3.80;;
20861;SDS011;10591;52.532;13.348;2023-09-30T03:10:45;11.10;;;4.05;;
20861;SDS011;10591;52.532;13.348;2023-09-30T03:13:16;10.68;;;4.03;;
20861;SDS011;10591;52.532;13.348;2023-09-30T03:15:47;8.10;;;3.85;;
20861;SDS011;10591;52.532;13.348;2023-09-30T03:18:21;12.07;;;4.30;;
20861;SDS011;10591;52.532;13.348;2023-09-30T03:20:57;9.95;;;4.03;;
20861;SDS011;10591;52.532;13.348;2023-09-30T03:23:30;15.85;;;4.47;;
20861;SDS011;10591;52.532;13.348;2023-09-30T03:26:01;10.48;;;4.37;;
20861;SDS011;10591;52.532;13.348;2023-09-30T03:28:32;10.10;;;4.08;;
20861;SDS011;10591;52.532;13.348;2023-09-30T03:31:02;11.55;;;4.47;;
20861;SDS011;10591;52.532;13.348;2023-09-30T03:33:37;9.90;;;3.92;;
20861;SDS011;10591;52.532;13.348;2023-09-30T03:36:08;11.73;;;4.12;;
20861;SDS011;10591;52.532;13.348;2023-09-30T03:38:40;12.15;;;4.30;;
20861;SDS011;10591;52.532;13.348;2023-09-30T03:41:10;11.53;;;4.00;;
20861;SDS011;10591;52.532;13.348;2023-09-30T03:43:42;11.65;;;4.33;;
20861;SDS011;10591;52.532;13.348;2023-09-30T03:46:13;15.38;;;4.12;;
20861;SDS011;10591;52.532;13.348;2023-09-30T03:48:44;10.78;;;4.15;;
20861;SDS011;10591;52.532;13.348;2023-09-30T03:51:16;10.78;;;4.10;;
20861;SDS011;10591;52.532;13.348;2023-09-30T03:53:47;13.05;;;4.17;;
20861;SDS011;10591;52.532;13.348;2023-09-30T03:56:18;11.93;;;4.55;;
20861;SDS011;10591;52.532;13.348;2023-09-30T03:58:50;10.10;;;3.95;;
20861;SDS011;10591;52.532;13.348;2023-09-30T04:01:21;11.65;;;4.12;;
20861;SDS011;10591;52.532;13.348;2023-09-30T04:03:52;11.85;;;4.62;;
20861;SDS011;10591;52.532;13.348;2023-09-30T04:06:25;12.37;;;4.30;;
20861;SDS011;10591;52.532;13.348;2023-09-30T04:08:58;10.03;;;3.92;;
20861;SDS011;10591;52.532;13.348;2023-09-30T04:11:30;11.63;;;4.22;;
20861;SDS011;10591;52.532;13.348;2023-09-30T04:14:01;10.58;;;3.95;;
20861;SDS011;10591;52.532;13.348;2023-09-30T04:16:33;10.88;;;4.40;;
20861;SDS011;10591;52.532;13.348;2023-09-30T04:19:04;10.48;;;3.98;;
20861;SDS011;10591;52.532;13.348;2023-09-30T04:21:37;11.25;;;4.15;;
20861;SDS011;10591;52.532;13.348;2023-09-30T04:24:08;14.40;;;4.62;;
20861;SDS011;10591;52.532;13.348;2023-09-30T04:26:39;10.80;;;4.08;;
20861;SDS011;10591;52.532;13.348;2023-09-30T04:29:10;13.08;;;4.28;;
20861;SDS011;10591;52.532;13.348;2023-09-30T04:31:40;13.03;;;4.40;;
20861;SDS011;10591;52.532;13.348;2023-09-30T04:34:11;8.43;;;4.15;;
20861;SDS011;10591;52.532;13.348;2023-09-30T04:36:42;8.98;;;4.30;;
20861;SDS011;10591;52.532;13.348;2023-09-30T04:39:13;10.15;;;4.30;;
20861;SDS011;10591;52.532;13.348;2023-09-30T04:41:45;8.83;;;4.33;;
20861;SDS011;10591;52.532;13.348;2023-09-30T04:44:15;10.78;;;4.47;;
20861;SDS011;10591;52.532;13.348;2023-09-30T04:46:46;14.70;;;4.17;;
20861;SDS011;10591;52.532;13.348;2023-09-30T04:49:17;16.42;;;4.95;;
20861;SDS011;10591;52.532;13.348;2023-09-30T04:51:48;10.82;;;4.83;;
20861;SDS011;10591;52.532;13.348;2023-09-30T04:54:18;14.35;;;4.62;;
20861;SDS011;10591;52.532;13.348;2023-09-30T04:56:50;13.75;;;5.05;;
20861;SDS011;10591;52.532;13.348;2023-09-30T04:59:21;11.68;;;4.28;;
20861;SDS011;10591;52.532;13.348;2023-09-30T05:01:53;10.55;;;5.00;;
20861;SDS011;10591;52.532;13.348;2023-09-30T05:04:25;9.10;;;4.12;;
20861;SDS011;10591;52.532;13.348;2023-09-30T05:06:57;10.30;;;4.65;;
20861;SDS011;10591;52.532;13.348;2023-09-30T05:09:28;13.03;;;4.97;;
20861;SDS011;10591;52.532;13.348;2023-09-30T05:11:58;13.05;;;4.85;;
20861;SDS011;10591;52.532;13.348;2023-09-30T05:14:29;9.75;;;4.55;;
20861;SDS011;10591;52.532;13.348;2023-09-30T05:17:00;12.45;;;4.55;;
20861;SDS011;10591;52.532;13.348;2023-09-30T05:19:33;9.50;;;4.92;;
20861;SDS011;10591;52.532;13.348;2023-09-30T05:22:05;14.87;;;5.03;;
20861;SDS011;10591;52.532;13.348;2023-09-30T05:24:36;11.03;;;4.45;;
20861;SDS011;10591;52.532;13.348;2023-09-30T05:27:07;12.63;;;4.55;;
20861;SDS011;10591;52.532;13.348;2023-09-30T05:29:38;12.78;;;4.45;;
20861;SDS011;10591;52.532;13.348;2023-09-30T05:32:09;8.88;;;4.05;;
20861;SDS011;10591;52.532;13.348;2023-09-30T05:34:39;14.28;;;5.25;;
20861;SDS011;10591;52.532;13.348;2023-09-30T05:37:10;10.08;;;4.40;;
20861;SDS011;10591;52.532;13.348;2023-09-30T05:39:41;10.68;;;4.35;;
20861;SDS011;10591;52.532;13.348;2023-09-30T05:42:13;10.18;;;4.37;;
20861;SDS011;10591;52.532;13.348;2023-09-30T05:44:45;13.43;;;4.60;;
20861;SDS011;10591;52.532;13.348;2023-09-30T05:47:17;12.35;;;4.00;;
20861;SDS011;10591;52.532;13.348;2023-09-30T05:49:48;12.30;;;4.03;;
20861;SDS011;10591;52.532;13.348;2023-09-30T05:52:18;13.65;;;4.53;;
20861;SDS011;10591;52.532;13.348;2023-09-30T05:54:49;9.68;;;4.22;;
20861;SDS011;10591;52.532;13.348;2023-09-30T05:57:21;11.53;;;3.90;;
20861;SDS011;10591;52.532;13.348;2023-09-30T05:59:52;10.10;;;4.05;;
20861;SDS011;10591;52.532;13.348;2023-09-30T06:02:24;11.33;;;4.45;;
20861;SDS011;10591;52.532;13.348;2023-09-30T06:04:55;9.53;;;4.15;;
20861;SDS011;10591;52.532;13.348;2023-09-30T06:07:26;10.10;;;4.28;;
20861;SDS011;10591;52.532;13.348;2023-09-30T06:09:56;10.90;;;4.03;;
20861;SDS011;10591;52.532;13.348;2023-09-30T06:12:27;9.70;;;3.98;;
20861;SDS011;10591;52.532;13.348;2023-09-30T06:14:58;10.88;;;3.85;;
20861;SDS011;10591;52.532;13.348;2023-09-30T06:17:33;7.67;;;3.50;;
20861;SDS011;10591;52.532;13.348;2023-09-30T06:20:05;8.30;;;3.77;;
20861;SDS011;10591;52.532;13.348;2023-09-30T06:22:38;12.05;;;3.62;;
20861;SDS011;10591;52.532;13.348;2023-09-30T06:25:10;11.10;;;4.45;;
20861;SDS011;10591;52.532;13.348;2023-09-30T06:27:48;13.75;;;4.05;;
20861;SDS011;10591;52.532;13.348;2023-09-30T06:30:16;10.75;;;3.92;;
20861;SDS011;10591;52.532;13.348;2023-09-30T06:32:49;10.63;;;4.75;;
20861;SDS011;10591;52.532;13.348;2023-09-30T06:35:20;11.48;;;4.08;;
20861;SDS011;10591;52.532;13.348;2023-09-30T06:37:53;10.25;;;4.83;;
20861;SDS011;10591;52.532;13.348;2023-09-30T06:40:24;10.65;;;4.05;;
20861;SDS011;10591;52.532;13.348;2023-09-30T06:42:55;8.03;;;3.77;;
20861;SDS011;10591;52.532;13.348;2023-09-30T06:45:29;11.20;;;4.40;;
20861;SDS011;10591;52.532;13.348;2023-09-30T06:48:07;9.70;;;4.37;;
20861;SDS011;10591;52.532;13.348;2023-09-30T06:50:45;12.85;;;4.65;;
20861;SDS011;10591;52.532;13.348;2023-09-30T06:53:18;13.88;;;4.42;;
20861;SDS011;10591;52.532;13.348;2023-09-30T06:55:50;9.45;;;4.47;;
20861;SDS011;10591;52.532;13.348;2023-09-30T06:58:21;10.60;;;4.53;;
20861;SDS011;10591;52.532;13.348;2023-09-30T07:00:52;10.18;;;4.72;;
20861;SDS011;10591;52.532;13.348;2023-09-30T07:03:23;9.98;;;3.98;;
20861;SDS011;10591;52.532;13.348;2023-09-30T07:05:55;14.93;;;4.75;;
20861;SDS011;10591;52.532;13.348;2023-09-30T07:08:28;9.08;;;3.98;;
20861;SDS011;10591;52.532;13.348;2023-09-30T07:10:59;10.30;;;3.95;;
20861;SDS011;10591;52.532;13.348;2023-09-30T07:13:30;9.53;;;4.37;;
20861;SDS011;10591;52.532;13.348;2023-09-30T07:16:01;12.75;;;3.98;;
20861;SDS011;10591;52.532;13.348;2023-09-30T07:18:32;11.68;;;4.33;;
20861;SDS011;10591;52.532;13.348;2023-09-30T07:21:04;8.28;;;3.60;;
20861;SDS011;10591;52.532;13.348;2023-09-30T07:23:35;10.48;;;3.60;;
20861;SDS011;10591;52.532;13.348;2023-09-30T07:26:06;9.70;;;3.90;;
20861;SDS011;10591;52.532;13.348;2023-09-30T07:28:37;10.78;;;4.17;;
20861;SDS011;10591;52.532;13.348;2023-09-30T07:31:08;13.88;;;4.25;;
20861;SDS011;10591;52.532;13.348;2023-09-30T07:33:40;8.85;;;4.35;;
20861;SDS011;10591;52.532;13.348;2023-09-30T07:36:11;10.58;;;3.98;;
20861;SDS011;10591;52.532;13.348;2023-09-30T07:38:44;12.53;;;4.12;;
20861;SDS011;10591;52.532;13.348;2023-09-30T07:41:16;12.33;;;4.10;;
20861;SDS011;10591;52.532;13.348;2023-09-30T07:43:47;10.55;;;4.28;;
20861;SDS011;10591;52.532;13.348;2023-09-30T07:46:18;11.05;;;4.40;;
20861;SDS011;10591;52.532;13.348;2023-09-30T07:48:49;13.00;;;4.47;;
20861;SDS011;10591;52.532;13.348;2023-09-30T07:51:22;10.70;;;4.10;;
20861;SDS011;10591;52.532;13.348;2023-09-30T07:53:52;11.43;;;4.58;;
20861;SDS011;10591;52.532;13.348;2023-09-30T07:56:24;11.68;;;4.47;;
20861;SDS011;10591;52.532;13.348;2023-09-30T07:58:55;11.43;;;4.35;;
20861;SDS011;10591;52.532;13.348;2023-09-30T08:01:26;11.30;;;4.53;;
20861;SDS011;10591;52.532;13.348;2023-09-30T08:03:58;12.85;;;4.60;;
20861;SDS011;10591;52.532;13.348;2023-09-30T08:06:30;8.98;;;3.60;;
20861;SDS011;10591;52.532;13.348;2023-09-30T08:09:00;11.83;;;4.15;;
20861;SDS011;10591;52.532;13.348;2023-09-30T08:11:32;11.45;;;3.83;;
20861;SDS011;10591;52.532;13.348;2023-09-30T08:14:04;12.28;;;4.25;;
20861;SDS011;10591;52.532;13.348;2023-09-30T08:16:35;10.20;;;3.95;;
20861;SDS011;10591;52.532;13.348;2023-09-30T08:19:07;16.20;;;4.40;;
20861;SDS011;10591;52.532;13.348;2023-09-30T08:21:38;10.28;;;4.30;;
20861;SDS011;10591;52.532;13.348;2023-09-30T08:24:09;12.70;;;4.10;;
20861;SDS011;10591;52.532;13.348;2023-09-30T08:26:40;8.18;;;3.55;;
20861;SDS011;10591;52.532;13.348;2023-09-30T08:29:10;7.72;;;3.85;;
20861;SDS011;10591;52.532;13.348;2023-09-30T08:31:41;10.95;;;3.90;;
20861;SDS011;10591;52.532;13.348;2023-09-30T08:34:12;10.03;;;3.22;;
20861;SDS011;10591;52.532;13.348;2023-09-30T08:36:46;13.55;;;4.42;;
20861;SDS011;10591;52.532;13.348;2023-09-30T08:39:16;9.48;;;3.72;;
20861;SDS011;10591;52.532;13.348;2023-09-30T08:41:47;10.15;;;4.03;;
20861;SDS011;10591;52.532;13.348;2023-09-30T08:44:19;12.07;;;3.87;;
20861;SDS011;10591;52.532;13.348;2023-09-30T08:46:52;9.65;;;4.08;;
20861;SDS011;10591;52.532;13.348;2023-09-30T08:49:23;8.40;;;3.52;;
20861;SDS011;10591;52.532;13.348;2023-09-30T08:51:55;11.85;;;4.47;;
20861;SDS011;10591;52.532;13.348;2023-09-30T08:54:30;8.48;;;3.80;;
20861;SDS011;10591;52.532;13.348;2023-09-30T08:57:01;10.48;;;4.50;;
20861;SDS011;10591;52.532;13.348;2023-09-30T08:59:34;12.10;;;3.70;;
20861;SDS011;10591;52.532;13.348;2023-09-30T09:02:07;10.25;;;3.92;;
20861;SDS011;10591;52.532;13.348;2023-09-30T09:04:42;9.38;;;3.35;;
20861;SDS011;10591;52.532;13.348;2023-09-30T09:07:15;10.63;;;3.80;;
20861;SDS011;10591;52.532;13.348;2023-09-30T09:10:10;9.53;;;3.58;;
20861;SDS011;10591;52.532;13.348;2023-09-30T09:12:35;12.33;;;3.77;;
20861;SDS011;10591;52.532;13.348;2023-09-30T09:15:19;13.78;;;4.47;;
20861;SDS011;10591;52.532;13.348;2023-09-30T09:17:51;10.60;;;3.08;;
20861;SDS011;10591;52.532;13.348;2023-09-30T09:20:23;9.33;;;3.80;;
20861;SDS011;10591;52.532;13.348;2023-09-30T09:22:55;10.60;;;3.50;;
20861;SDS011;10591;52.532;13.348;2023-09-30T09:25:30;10.53;;;3.02;;
20861;SDS011;10591;52.532;13.348;2023-09-30T09:28:04;12.15;;;3.42;;
20861;SDS011;10591;52.532;13.348;2023-09-30T09:30:34;7.80;;;3.50;;
20861;SDS011;10591;52.532;13.348;2023-09-30T09:33:09;10.82;;;3.70;;
20861;SDS011;10591;52.532;13.348;2023-09-30T09:35:40;8.75;;;3.80;;
20861;SDS011;10591;52.532;13.348;2023-09-30T09:38:14;8.58;;;3.35;;
20861;SDS011;10591;52.532;13.348;2023-09-30T09:40:44;11.80;;;3.55;;
20861;SDS011;10591;52.532;13.348;2023-09-30T09:43:15;9.85;;;3.33;;
20861;SDS011;10591;52.532;13.348;2023-09-30T09:45:46;9.90;;;3.00;;
20861;SDS011;10591;52.532;13.348;2023-09-30T09:48:18;10.65;;;3.72;;
20861;SDS011;10591;52.532;13.348;2023-09-30T09:50:49;8.48;;;3.17;;
20861;SDS011;10591;52.532;13.348;2023-09-30T09:53:20;8.38;;;4.15;;
20861;SDS011;10591;52.532;13.348;2023-09-30T09:55:51;8.13;;;3.40;;
20861;SDS011;10591;52.532;13.348;2023-09-30T09:58:23;8.30;;;3.17;;
20861;SDS011;10591;52.532;13.348;2023-09-30T10:00:55;10.05;;;3.60;;
20861;SDS011;10591;52.532;13.348;2023-09-30T10:03:27;8.40;;;2.98;;
20861;SDS011;10591;52.532;13.348;2023-09-30T10:05:59;11.53;;;3.58;;
20861;SDS011;10591;52.532;13.348;2023-09-30T10:08:42;7.35;;;3.20;;
20861;SDS011;10591;52.532;13.348;2023-09-30T10:11:18;9.08;;;2.90;;
20861;SDS011;10591;52.532;13.348;2023-09-30T10:13:56;6.97;;;2.98;;
20861;SDS011;10591;52.532;13.348;2023-09-30T10:19:12;10.13;;;3.33;;
20861;SDS011;10591;52.532;13.348;2023-09-30T10:24:55;8.70;;;3.37;;
20861;SDS011;10591;52.532;13.348;2023-09-30T10:41:06;9.78;;;3.27;;
20861;SDS011;10591;52.532;13.348;2023-09-30T10:43:38;7.25;;;3.22;;
20861;SDS011;10591;52.532;13.348;2023-09-30T10:46:33;9.08;;;2.95;;
20861;SDS011;10591;52.532;13.348;2023-09-30T10:49:20;7.37;;;3.12;;
20861;SDS011;10591;52.532;13.348;2023-09-30T10:51:49;7.92;;;3.10;;
20861;SDS011;10591;52.532;13.348;2023-09-30T10:54:26;5.75;;;2.70;;
20861;SDS011;10591;52.532;13.348;2023-09-30T10:57:00;9.43;;;2.92;;
20861;SDS011;10591;52.532;13.348;2023-09-30T10:59:32;6.33;;;2.72;;
20861;SDS011;10591;52.532;13.348;2023-09-30T11:02:17;11.45;;;2.98;;
20861;SDS011;10591;52.532;13.348;2023-09-30T11:04:50;9.98;;;3.20;;
20861;SDS011;10591;52.532;13.348;2023-09-30T11:07:22;7.30;;;2.70;;
20861;SDS011;10591;52.532;13.348;2023-09-30T11:09:54;6.95;;;2.92;;
20861;SDS011;10591;52.532;13.348;2023-09-30T11:12:25;6.55;;;2.60;;
20861;SDS011;10591;52.532;13.348;2023-09-30T11:14:58;12.35;;;2.95;;
20861;SDS011;10591;52.532;13.348;2023-09-30T11:17:31;7.80;;;2.70;;
20861;SDS011;10591;52.532;13.348;2023-09-30T11:20:02;5.70;;;2.52;;
20861;SDS011;10591;52.532;13.348;2023-09-30T11:22:35;7.37;;;3.00;;
20861;SDS011;10591;52.532;13.348;2023-09-30T11:25:06;6.97;;;2.67;;
20861;SDS011;10591;52.532;13.348;2023-09-30T11:27:38;3.77;;;2.17;;
20861;SDS011;10591;52.532;13.348;2023-09-30T11:30:09;9.68;;;2.58;;
20861;SDS011;10591;52.532;13.348;2023-09-30T11:32:41;8.28;;;2.60;;
20861;SDS011;10591;52.532;13.348;2023-09-30T11:35:24;7.47;;;2.65;;
20861;SDS011;10591;52.532;13.348;2023-09-30T11:37:54;10.60;;;3.37;;
20861;SDS011;10591;52.532;13.348;2023-09-30T11:40:25;6.75;;;2.65;;
20861;SDS011;10591;52.532;13.348;2023-09-30T11:43:08;6.30;;;3.10;;
20861;SDS011;10591;52.532;13.348;2023-09-30T11:45:44;6.50;;;2.50;;
20861;SDS011;10591;52.532;13.348;2023-09-30T11:48:16;8.13;;;2.60;;
20861;SDS011;10591;52.532;13.348;2023-09-30T11:50:49;6.90;;;3.08;;
20861;SDS011;10591;52.532;13.348;2023-09-30T11:53:21;8.18;;;2.92;;
20861;SDS011;10591;52.532;13.348;2023-09-30T11:55:52;8.03;;;2.87;;
20861;SDS011;10591;52.532;13.348;2023-09-30T11:58:27;6.87;;;2.98;;
20861;SDS011;10591;52.532;13.348;2023-09-30T12:01:01;7.30;;;2.65;;
20861;SDS011;10591;52.532;13.348;2023-09-30T12:03:34;5.92;;;2.65;;
20861;SDS011;10591;52.532;13.348;2023-09-30T12:06:06;4.78;;;2.47;;
20861;SDS011;10591;52.532;13.348;2023-09-30T12:08:37;5.70;;;3.00;;
20861;SDS011;10591;52.532;13.348;2023-09-30T12:11:07;6.37;;;2.80;;
20861;SDS011;10591;52.532;13.348;2023-09-30T12:13:40;6.47;;;2.25;;
20861;SDS011;10591;52.532;13.348;2023-09-30T12:16:13;7.05;;;2.35;;
20861;SDS011;10591;52.532;13.348;2023-09-30T12:18:45;5.25;;;2.40;;
20861;SDS011;10591;52.532;13.348;2023-09-30T12:21:15;7.55;;;2.22;;
20861;SDS011;10591;52.532;13.348;2023-09-30T12:23:49;5.87;;;2.47;;
20861;SDS011;10591;52.532;13.348;2023-09-30T12:26:20;6.20;;;2.70;;
20861;SDS011;10591;52.532;13.348;2023-09-30T12:28:51;7.33;;;2.30;;
20861;SDS011;10591;52.532;13.348;2023-09-30T12:31:22;5.08;;;2.40;;
20861;SDS011;10591;52.532;13.348;2023-09-30T12:33:55;5.00;;;2.33;;
20861;SDS011;10591;52.532;13.348;2023-09-30T12:36:26;7.67;;;2.55;;
20861;SDS011;10591;52.532;13.348;2023-09-30T12:38:57;7.62;;;2.55;;
20861;SDS011;10591;52.532;13.348;2023-09-30T12:41:27;7.85;;;2.95;;
20861;SDS011;10591;52.532;13.348;2023-09-30T12:44:00;4.75;;;2.05;;
20861;SDS011;10591;52.532;13.348;2023-09-30T12:46:30;5.83;;;2.50;;
20861;SDS011;10591;52.532;13.348;2023-09-30T12:49:03;4.78;;;2.40;;
20861;SDS011;10591;52.532;13.348;2023-09-30T12:51:34;6.83;;;2.20;;
20861;SDS011;10591;52.532;13.348;2023-09-30T12:54:06;5.30;;;2.17;;
20861;SDS011;10591;52.532;13.348;2023-09-30T12:56:37;5.50;;;2.00;;
20861;SDS011;10591;52.532;13.348;2023-09-30T12:59:08;7.83;;;2.08;;
20861;SDS011;10591;52.532;13.348;2023-09-30T13:01:40;5.30;;;2.02;;
20861;SDS011;10591;52.532;13.348;2023-09-30T13:04:11;10.32;;;2.70;;
20861;SDS011;10591;52.532;13.348;2023-09-30T13:06:42;3.70;;;2.33;;
20861;SDS011;10591;52.532;13.348;2023-09-30T13:09:19;6.05;;;2.58;;
20861;SDS011;10591;52.532;13.348;2023-09-30T13:11:46;4.75;;;2.08;;
20861;SDS011;10591;52.532;13.348;2023-09-30T13:14:16;79.37;;;5.35;;
20861;SDS011;10591;52.532;13.348;2023-09-30T13:16:48;5.03;;;2.22;;
20861;SDS011;10591;52.532;13.348;2023-09-30T13:19:19;5.97;;;2.05;;
20861;SDS011;10591;52.532;13.348;2023-09-30T13:21:53;7.08;;;2.50;;
20861;SDS011;10591;52.532;13.348;2023-09-30T13:24:24;7.10;;;1.90;;
20861;SDS011;10591;52.532;13.348;2023-09-30T13:26:56;7.45;;;2.60;;
20861;SDS011;10591;52.532;13.348;2023-09-30T13:29:27;5.00;;;2.30;;
20861;SDS011;10591;52.532;13.348;2023-09-30T13:31:57;5.70;;;2.17;;
20861;SDS011;10591;52.532;13.348;2023-09-30T13:34:30;8.68;;;2.22;;
20861;SDS011;10591;52.532;13.348;2023-09-30T13:37:01;6.67;;;2.35;;
20861;SDS011;10591;52.532;13.348;2023-09-30T13:39:32;10.38;;;2.60;;
20861;SDS011;10591;52.532;13.348;2023-09-30T13:42:02;4.85;;;2.05;;
20861;SDS011;10591;52.532;13.348;2023-09-30T13:44:35;5.70;;;2.05;;
20861;SDS011;10591;52.532;13.348;2023-09-30T13:47:06;4.05;;;2.10;;
20861;SDS011;10591;52.532;13.348;2023-09-30T13:49:37;9.93;;;2.35;;
20861;SDS011;10591;52.532;13.348;2023-09-30T13:52:08;4.25;;;2.10;;
20861;SDS011;10591;52.532;13.348;2023-09-30T13:54:38;7.15;;;2.42;;
20861;SDS011;10591;52.532;13.348;2023-09-30T13:57:09;3.95;;;2.17;;
20861;SDS011;10591;52.532;13.348;2023-09-30T13:59:40;5.33;;;2.02;;
20861;SDS011;10591;52.532;13.348;2023-09-30T14:02:13;4.75;;;2.37;;
20861;SDS011;10591;52.532;13.348;2023-09-30T14:04:44;5.03;;;1.85;;
20861;SDS011;10591;52.532;13.348;2023-09-30T14:07:16;7.67;;;2.10;;
20861;SDS011;10591;52.532;13.348;2023-09-30T14:09:47;4.87;;;2.00;;
20861;SDS011;10591;52.532;13.348;2023-09-30T14:12:17;4.72;;;2.10;;
20861;SDS011;10591;52.532;13.348;2023-09-30T14:14:48;5.55;;;2.08;;
20861;SDS011;10591;52.532;13.348;2023-09-30T14:17:20;5.35;;;2.10;;
20861;SDS011;10591;52.532;13.348;2023-09-30T14:19:51;3.10;;;1.82;;
20861;SDS011;10591;52.532;13.348;2023-09-30T14:22:21;4.92;;;2.30;;
20861;SDS011;10591;52.532;13.348;2023-09-30T14:24:52;5.33;;;2.42;;
20861;SDS011;10591;52.532;13.348;2023-09-30T14:27:22;7.28;;;2.12;;
20861;SDS011;10591;52.532;13.348;2023-09-30T14:29:55;5.60;;;2.30;;
20861;SDS011;10591;52.532;13.348;2023-09-30T14:32:26;4.75;;;2.00;;
20861;SDS011;10591;52.532;13.348;2023-09-30T14:34:57;5.15;;;2.20;;
20861;SDS011;10591;52.532;13.348;2023-09-30T14:37:29;7.83;;;3.65;;
20861;SDS011;10591;52.532;13.348;2023-09-30T14:39:59;6.12;;;2.20;;
20861;SDS011;10591;52.532;13.348;2023-09-30T14:42:32;6.28;;;2.52;;
20861;SDS011;10591;52.532;13.348;2023-09-30T14:45:05;6.80;;;2.27;;
20861;SDS011;10591;52.532;13.348;2023-09-30T14:47:36;7.50;;;2.90;;
20861;SDS011;10591;52.532;13.348;2023-09-30T14:50:08;4.22;;;1.90;;
20861;SDS011;10591;52.532;13.348;2023-09-30T14:52:39;4.97;;;2.37;;
20861;SDS011;10591;52.532;13.348;2023-09-30T14:55:14;5.40;;;2.60;;
20861;SDS011;10591;52.532;13.348;2023-09-30T14:57:45;7.42;;;2.90;;
20861;SDS011;10591;52.532;13.348;2023-09-30T15:00:16;8.38;;;2.33;;
20861;SDS011;10591;52.532;13.348;2023-09-30T15:02:48;6.28;;;2.30;;
20861;SDS011;10591;52.532;13.348;2023-09-30T15:05:19;4.28;;;2.10;;
20861;SDS011;10591;52.532;13.348;2023-09-30T15:07:52;6.28;;;2.30;;
20861;SDS011;10591;52.532;13.348;2023-09-30T15:10:23;5.67;;;2.15;;
20861;SDS011;10591;52.532;13.348;2023-09-30T15:12:54;5.15;;;2.08;;
20861;SDS011;10591;52.532;13.348;2023-09-30T15:15:26;3.65;;;2.10;;
20861;SDS011;10591;52.532;13.348;2023-09-30T15:17:57;3.95;;;1.60;;